createdAt,value
2019-01-11T11:06:39.896Z,1.24
2019-01-11T11:09:08.801Z,1.92
2019-01-11T11:11:37.361Z,0.91
2019-01-11T11:14:05.912Z,1.23
2019-01-11T11:16:34.197Z,1.58
2019-01-11T11:19:02.503Z,1.35
2019-01-11T11:21:34.649Z,1.67
2019-01-11T11:24:01.157Z,2.44
2019-01-11T11:26:29.510Z,2.83
2019-01-11T11:28:57.833Z,2.41
2019-01-11T11:31:26.116Z,2.20
2019-01-11T11:33:54.400Z,2.04
2019-01-11T11:36:22.785Z,2.09
2019-01-11T11:38:51.069Z,2.04
2019-01-11T11:41:19.444Z,1.90
2019-01-11T11:43:48.096Z,1.99
2019-01-11T11:46:16.411Z,2.09
2019-01-11T11:48:45.072Z,2.08
2019-01-11T11:51:13.530Z,1.88
2019-01-11T11:53:42.138Z,1.75
2019-01-11T11:56:10.725Z,1.72
2019-01-11T11:58:39.098Z,2.43
2019-01-11T12:01:08.324Z,1.87
2019-01-11T12:03:36.631Z,2.47
2019-01-11T12:06:05.076Z,2.01
2019-01-11T12:08:33.464Z,2.17
2019-01-11T12:11:01.756Z,2.49
2019-01-11T12:13:30.060Z,2.20
2019-01-11T12:15:58.344Z,2.47
2019-01-11T12:18:26.974Z,2.27
2019-01-11T12:20:55.356Z,2.08
2019-01-11T12:23:23.790Z,2.33
2019-01-11T12:25:52.180Z,2.54
2019-01-11T12:28:20.524Z,2.29
2019-01-11T12:30:48.876Z,2.24
2019-01-11T12:33:17.186Z,2.41
2019-01-11T12:35:45.472Z,2.52
2019-01-11T12:38:14.442Z,2.06
2019-01-11T12:40:42.729Z,1.90
2019-01-11T12:43:14.000Z,1.96
2019-01-11T12:45:42.363Z,2.00
2019-01-11T12:48:10.667Z,2.10
2019-01-11T12:50:39.021Z,2.10
2019-01-11T12:53:07.339Z,2.11
2019-01-11T12:55:35.631Z,1.87
2019-01-11T12:58:03.939Z,1.91
2019-01-11T13:00:32.233Z,1.81
2019-01-11T13:03:00.817Z,2.00
2019-01-11T13:05:29.192Z,1.92
2019-01-11T13:07:57.488Z,2.09
2019-01-11T13:10:25.965Z,2.25
2019-01-11T13:12:54.331Z,2.05
2019-01-11T13:15:23.040Z,1.86
2019-01-11T13:17:51.729Z,2.08
2019-01-11T13:20:21.453Z,1.99
2019-01-11T13:22:49.993Z,2.06
2019-01-11T13:25:18.967Z,2.04
2019-01-11T13:27:47.272Z,1.98
2019-01-11T13:30:17.430Z,2.04
2019-01-11T13:32:45.897Z,2.55
2019-01-11T13:35:14.274Z,2.54
2019-01-11T13:37:42.643Z,3.07
2019-01-11T13:40:14.048Z,2.79
2019-01-11T13:42:42.433Z,2.92
2019-01-11T13:45:11.450Z,2.36
2019-01-11T13:47:40.196Z,2.22
2019-01-11T13:50:17.701Z,1.88
2019-01-11T13:52:46.025Z,1.94
2019-01-11T13:55:14.404Z,2.10
2019-01-11T13:57:42.749Z,2.08
2019-01-11T14:00:14.693Z,2.25
2019-01-11T14:02:43.803Z,2.01
2019-01-11T14:05:12.395Z,1.90
2019-01-11T14:07:40.762Z,1.91
2019-01-11T14:10:09.093Z,1.65
2019-01-11T14:12:37.395Z,1.90
2019-01-11T14:15:08.559Z,1.95
2019-01-11T14:17:36.858Z,2.32
2019-01-11T14:20:07.530Z,1.93
2019-01-11T14:22:35.831Z,1.89
2019-01-11T14:25:08.601Z,2.19
2019-01-11T14:27:36.993Z,2.15
2019-01-11T14:30:17.262Z,2.42
2019-01-11T14:32:45.866Z,2.23
2019-01-11T14:35:14.172Z,2.41
2019-01-11T14:37:42.854Z,2.29
2019-01-11T14:40:16.379Z,2.29
2019-01-11T14:42:44.869Z,2.39
2019-01-11T14:45:16.293Z,2.48
2019-01-11T14:47:44.829Z,2.16
2019-01-11T14:50:15.687Z,2.25
2019-01-11T14:52:44.430Z,2.20
2019-01-11T14:55:12.919Z,2.17
2019-01-11T14:57:41.292Z,2.03
2019-01-11T15:00:12.781Z,2.00
2019-01-11T15:02:41.087Z,2.10
2019-01-11T15:05:11.641Z,1.97
2019-01-11T15:07:39.944Z,1.97
2019-01-11T15:10:11.084Z,2.05
2019-01-11T15:12:39.820Z,2.14
2019-01-11T15:15:09.056Z,1.92
2019-01-11T15:17:37.448Z,2.09
2019-01-11T15:20:08.938Z,1.66
2019-01-11T15:22:37.581Z,1.53
2019-01-11T15:25:08.219Z,1.39
2019-01-11T15:27:36.539Z,1.42
2019-01-11T15:30:08.013Z,1.27
2019-01-11T15:32:36.521Z,1.39
2019-01-11T15:35:06.588Z,1.53
2019-01-11T15:37:34.919Z,1.50
2019-01-11T15:40:04.951Z,1.33
2019-01-11T15:42:33.263Z,1.41
2019-01-11T15:45:01.591Z,1.06
2019-01-11T15:47:29.904Z,1.01
2019-01-11T15:49:58.232Z,0.98
2019-01-11T15:52:33.083Z,0.89
2019-01-11T15:54:56.673Z,0.83
2019-01-11T15:57:27.019Z,0.84
2019-01-11T16:00:00.930Z,0.65
2019-01-11T16:02:29.245Z,0.69
2019-01-11T16:04:59.833Z,0.83
2019-01-11T16:07:28.518Z,0.73
2019-01-11T16:09:59.383Z,0.87
2019-01-11T16:12:30.763Z,0.83
2019-01-11T16:15:10.548Z,0.92
2019-01-11T16:17:38.855Z,0.83
2019-01-11T16:20:12.446Z,0.98
2019-01-11T16:22:40.840Z,1.02
2019-01-11T16:25:11.959Z,0.80
2019-01-11T16:27:40.773Z,0.65
2019-01-11T16:30:12.090Z,0.89
2019-01-11T16:32:40.428Z,0.78
2019-01-11T16:35:08.808Z,0.70
2019-01-11T16:37:37.228Z,1.06
2019-01-11T16:40:11.204Z,0.73
2019-01-11T16:42:40.723Z,0.89
2019-01-11T16:45:12.254Z,0.96
2019-01-11T16:47:40.630Z,0.89
2019-01-11T16:50:15.355Z,0.80
2019-01-11T16:52:46.436Z,0.98
2019-01-11T16:55:14.159Z,1.04
2019-01-11T16:57:42.541Z,0.95
2019-01-11T17:00:16.950Z,0.98
2019-01-11T17:02:45.671Z,0.72
2019-01-11T17:05:14.720Z,0.36
2019-01-11T17:07:43.009Z,0.44
2019-01-11T17:10:12.839Z,0.81
2019-01-11T17:12:41.947Z,0.75
2019-01-11T17:15:14.332Z,0.44
2019-01-11T17:17:42.749Z,0.49
2019-01-11T17:20:14.165Z,0.66
2019-01-11T17:22:42.492Z,0.74
2019-01-11T17:25:11.080Z,0.35
2019-01-11T17:27:39.495Z,0.38
2019-01-11T17:30:13.652Z,0.50
2019-01-11T17:32:41.997Z,0.59
2019-01-11T17:35:10.442Z,0.29
2019-01-11T17:37:38.753Z,0.32
2019-01-11T17:40:09.829Z,0.65
2019-01-11T17:42:38.267Z,0.35
2019-01-11T17:45:10.999Z,0.51
2019-01-11T17:47:39.715Z,0.64
2019-01-11T17:50:11.402Z,0.30
2019-01-11T17:52:39.775Z,0.55
2019-01-11T17:55:08.563Z,0.71
2019-01-11T17:57:37.292Z,0.91
2019-01-11T18:00:09.446Z,1.43
2019-01-11T18:02:37.918Z,1.17
2019-01-11T18:05:08.667Z,0.89
2019-01-11T18:07:37.210Z,0.81
2019-01-11T18:10:08.630Z,0.93
2019-01-11T18:12:37.328Z,0.72
2019-01-11T18:15:08.645Z,0.57
2019-01-11T18:17:36.991Z,0.54
2019-01-11T18:20:11.544Z,0.34
2019-01-11T18:22:39.885Z,0.63
2019-01-11T18:25:08.262Z,0.81
2019-01-11T18:27:36.642Z,0.88
2019-01-11T18:30:08.142Z,0.87
2019-01-11T18:32:36.449Z,0.86
2019-01-11T18:35:06.265Z,1.03
2019-01-11T18:37:34.640Z,0.99
2019-01-11T18:40:03.249Z,0.91
2019-01-11T18:42:31.919Z,0.94
2019-01-11T18:45:00.632Z,1.01
2019-01-11T18:47:28.941Z,1.07
2019-01-11T18:49:57.293Z,1.04
2019-01-11T18:52:25.586Z,1.00
2019-01-11T18:54:53.898Z,1.13
2019-01-11T18:57:22.224Z,1.06
2019-01-11T18:59:50.538Z,0.97
2019-01-11T19:02:18.876Z,1.14
2019-01-11T19:04:47.251Z,1.11
2019-01-11T19:07:15.602Z,1.23
2019-01-11T19:09:43.918Z,1.19
2019-01-11T19:12:12.258Z,1.28
2019-01-11T19:14:40.572Z,1.27
2019-01-11T19:17:08.916Z,1.19
2019-01-11T19:19:37.306Z,1.21
2019-01-11T19:22:06.080Z,1.10
2019-01-11T19:24:34.393Z,0.89
2019-01-11T19:27:02.720Z,1.17
2019-01-11T19:29:31.033Z,1.26
2019-01-11T19:31:59.358Z,1.21
2019-01-11T19:34:28.040Z,1.11
2019-01-11T19:36:56.354Z,1.41
2019-01-11T19:39:24.684Z,0.92
2019-01-11T19:41:53.016Z,0.88
2019-01-11T19:44:21.319Z,0.90
2019-01-11T19:46:49.631Z,1.15
2019-01-11T19:49:17.971Z,0.97
2019-01-11T19:51:46.715Z,3.40
2019-01-11T19:54:15.321Z,0.83
2019-01-11T19:56:43.648Z,1.06
2019-01-11T19:59:11.983Z,0.98
2019-01-11T20:01:40.357Z,0.93
2019-01-11T20:04:08.783Z,0.91
2019-01-11T20:06:37.174Z,0.78
2019-01-11T20:09:07.685Z,1.16
2019-01-11T20:11:36.008Z,1.24
2019-01-11T20:14:04.490Z,0.74
2019-01-11T20:16:33.211Z,1.16
2019-01-11T20:19:01.499Z,1.07
2019-01-11T20:21:30.024Z,1.13
2019-01-11T20:23:58.339Z,1.00
2019-01-11T20:26:26.747Z,0.91
2019-01-11T20:28:55.058Z,0.91
2019-01-11T20:31:23.675Z,0.87
2019-01-11T20:33:52.175Z,0.99
2019-01-11T20:36:20.881Z,1.06
2019-01-11T20:38:49.383Z,0.82
2019-01-11T20:41:17.758Z,0.88
2019-01-11T20:43:46.088Z,0.86
2019-01-11T20:46:14.470Z,1.03
2019-01-11T20:48:42.895Z,0.93
2019-01-11T20:51:11.205Z,1.44
2019-01-11T20:53:41.803Z,1.24
2019-01-11T20:56:09.846Z,1.27
2019-01-11T20:58:38.459Z,1.45
2019-01-11T21:01:08.276Z,1.46
2019-01-11T21:03:36.660Z,0.98
2019-01-11T21:06:05.251Z,1.44
2019-01-11T21:08:33.566Z,1.28
2019-01-11T21:11:01.897Z,1.35
2019-01-11T21:13:30.576Z,1.16
2019-01-11T21:15:58.928Z,1.11
2019-01-11T21:18:27.307Z,1.21
2019-01-11T21:20:55.634Z,1.37
2019-01-11T21:23:24.064Z,1.44
2019-01-11T21:25:52.392Z,1.52
2019-01-11T21:28:20.773Z,1.36
2019-01-11T21:30:49.158Z,1.65
2019-01-11T21:33:17.560Z,1.29
2019-01-11T21:35:45.909Z,1.11
2019-01-11T21:38:14.598Z,1.26
2019-01-11T21:40:42.907Z,1.11
2019-01-11T21:43:11.254Z,0.92
2019-01-11T21:45:39.575Z,1.05
2019-01-11T21:48:07.963Z,1.35
2019-01-11T21:50:36.709Z,1.06
2019-01-11T21:53:05.409Z,0.97
2019-01-11T21:55:34.084Z,1.06
2019-01-11T21:58:02.473Z,1.02
2019-01-11T22:00:36.569Z,1.16
2019-01-11T22:03:06.216Z,1.07
2019-01-11T22:05:34.614Z,1.13
2019-01-11T22:08:02.920Z,1.39
2019-01-11T22:10:31.544Z,1.41
2019-01-11T22:13:00.236Z,1.33
2019-01-11T22:15:28.542Z,1.49
2019-01-11T22:17:56.876Z,1.39
2019-01-11T22:20:25.180Z,1.49
2019-01-11T22:22:53.517Z,1.36
2019-01-11T22:25:21.846Z,1.59
2019-01-11T22:27:50.527Z,1.65
2019-01-11T22:30:21.472Z,1.54
2019-01-11T22:32:49.962Z,1.46
2019-01-11T22:35:18.824Z,1.53
2019-01-11T22:37:47.204Z,1.56
2019-01-11T22:40:18.066Z,1.61
2019-01-11T22:42:47.366Z,1.62
2019-01-11T22:45:16.180Z,1.63
2019-01-11T22:47:44.852Z,1.51
2019-01-11T22:50:15.323Z,1.57
2019-01-11T22:52:43.790Z,1.51
2019-01-11T22:55:14.563Z,1.59
2019-01-11T22:57:42.871Z,1.45
2019-01-11T23:00:30.517Z,1.20
2019-01-11T23:02:59.693Z,1.16
2019-01-11T23:05:28.099Z,1.46
2019-01-11T23:07:57.667Z,1.48
2019-01-11T23:10:41.045Z,1.48
2019-01-11T23:13:09.460Z,1.48
2019-01-11T23:15:37.834Z,1.38
2019-01-11T23:18:06.630Z,1.49
2019-01-11T23:20:34.941Z,1.73
2019-01-11T23:23:03.469Z,1.41
2019-01-11T23:25:31.831Z,1.24
2019-01-11T23:28:00.149Z,1.35
2019-01-11T23:30:28.454Z,1.26
2019-01-11T23:32:56.792Z,1.31
2019-01-11T23:35:25.098Z,1.44
2019-01-11T23:37:53.431Z,1.59
2019-01-11T23:40:21.744Z,1.64
2019-01-11T23:42:50.090Z,1.71
2019-01-11T23:45:18.538Z,1.68
2019-01-11T23:47:46.851Z,1.95
2019-01-11T23:50:15.927Z,1.71
2019-01-11T23:52:44.486Z,2.05
2019-01-11T23:55:13.284Z,2.19
2019-01-11T23:57:41.597Z,2.07
